• Join FlightAware (Why Join?)
  • Login
  • US Flag 
06:51PM EDT


 

Airport Tracker/Info


-or-


 

Live Flight TrackerFlight Track Log ✈ DAL759 ✈ 08-May-2013 ✈ KMSP - KGEG

Flight Track Log - Related Links

Times and Time Zones

All times are in EDT time to prevent confusion due to time zone crossing. See the DAL759 flight status page for this flight to view local times or setup timezone preferences in your user account.

Time Position Orientation Groundspeed Altitude Reporting Facility
EDT Latitude Longitude Course Direction KTS MPH feet Rate Location/Type
10:47PM 44.9167 -93.2667 282° West 198 228 2,300  Level Minneapolis TRACON
10:48PM 44.9311 -93.3161 292° West 243 280 3,600 2,880 Climbing Minneapolis Center
10:49PM 44.9722 -93.4111 301° West 282 325 7,100 3,300 Climbing Minneapolis Center
10:50PM 44.9583 -93.8814 276° West  Level FlightAware Approximate
10:50PM 45.0053 -93.5108 295° West 290 334 10,400  Level Minneapolis Center
10:51PM 44.9749 -94.0491 283° West  Level FlightAware Approximate
10:51PM 45.0147 -93.6250 277° West 294 338 13,400  Level Minneapolis Center
10:52PM 44.9998 -94.2151 282° West  Level FlightAware Approximate
10:52PM 45.0381 -93.7522 285° West 343 395 14,800  Level Minneapolis Center
10:53PM 45.0872 -93.8769 299° West 362 417 17,500 2,460 Climbing Minneapolis Center
10:54PM 45.1447 -94.0297 298° West 366 421 19,900 1,920 Climbing Minneapolis Center
10:55PM 45.1808 -94.1747 290° West 389 448 21,500 1,260 Climbing Minneapolis Center
10:56PM 45.2131 -94.3336 286° West 413 475 22,500 960 Climbing Minneapolis Center
10:57PM 45.2475 -94.5075 286° West 454 522 23,500 1,380 Climbing Minneapolis Center
10:58PM 45.2875 -94.6925 287° West 466 536 25,400 1,800 Climbing Minneapolis Center
10:59PM 45.3214 -94.8667 286° West 462 532 27,200 1,560 Climbing Minneapolis Center
11:00PM 45.3569 -95.0408 286° West 462 532 28,700 1,320 Climbing Minneapolis Center
11:01PM 45.3900 -95.2122 285° West 456 525 30,000 600 Climbing Minneapolis Center
11:02PM 45.4231 -95.3825 286° West 451 519 30,000  Level Minneapolis Center
11:03PM 45.4625 -95.5867 285° West 449 517 30,000  Level Minneapolis Center
11:04PM 45.4950 -95.7572 285° West 449 517 30,000  Level Minneapolis Center
11:05PM 45.5281 -95.9283 285° West 449 517 30,000  Level Minneapolis Center
11:06PM 45.5600 -96.0989 285° West 447 514 30,000  Level Minneapolis Center
11:07PM 45.5914 -96.2717 285° West 451 519 30,000  Level Minneapolis Center
11:08PM 45.6242 -96.4444 285° West 452 520 30,000  Level Minneapolis Center
11:09PM 45.6561 -96.6169 285° West 451 519 30,000  Level Minneapolis Center
11:10PM 45.6886 -96.7864 285° West 445 512 30,000  Level Minneapolis Center
11:11PM 45.7267 -96.9969 285° West 457 526 30,000  Level Minneapolis Center
11:12PM 45.7564 -97.1697 284° West 451 519 30,000  Level Minneapolis Center
11:13PM 45.7875 -97.3431 284° West 450 518 30,000  Level Minneapolis Center
11:15PM 45.8167 -97.5161 284° West 449 517 30,000  Level Minneapolis Center
11:16PM 45.8461 -97.6892 284° West 448 516 30,000  Level Minneapolis Center
11:17PM 45.8847 -97.9106 284° West 446 513 30,000  Level Minneapolis Center
11:18PM 45.9161 -98.1019 283° West 449 517 30,000  Level Minneapolis Center
11:19PM 45.9514 -98.3100 284° West 449 517 30,000  Level Minneapolis Center
11:20PM 45.9803 -98.4817 284° West 446 513 30,000  Level Minneapolis Center
11:21PM 46.0086 -98.6536 283° West 445 512 30,000  Level Minneapolis Center
11:22PM 46.0367 -98.8239 283° West 442 509 30,000  Level Minneapolis Center
11:23PM 46.0636 -98.9947 283° West 440 506 30,000 -60 Level Minneapolis Center
11:24PM 46.0892 -99.1536 283° West 442 509 29,900  Descending Minneapolis Center
11:25PM 46.1183 -99.3378 283° West 441 507 30,000  Climbing Minneapolis Center
11:26PM 46.1450 -99.5086 283° West 441 507 30,000  Level Minneapolis Center
11:27PM 46.1758 -99.7106 283° West 435 501 30,000  Level Minneapolis Center
11:28PM 46.2022 -99.8789 283° West 433 498 30,000  Level Minneapolis Center
11:29PM 46.2286 -100.0511 283° West 439 505 30,000  Level Minneapolis Center
11:30PM 46.2539 -100.2233 282° West 440 506 30,000  Level Minneapolis Center
11:31PM 46.2783 -100.3914 282° West 432 497 30,000  Level Minneapolis Center
11:32PM 46.3031 -100.5592 282° West 430 495 30,000  Level Minneapolis Center
11:33PM 46.3267 -100.7297 281° West 432 497 30,000  Level Minneapolis Center
11:34PM 46.3514 -100.9006 282° West 435 501 30,000  Level Minneapolis Center
11:35PM 46.3753 -101.0731 281° West 437 503 30,000  Level Minneapolis Center
11:36PM 46.4039 -101.2778 282° West 435 501 30,000  Level Minneapolis Center
11:37PM 46.4275 -101.4486 281° West 434 499 30,000  Level Minneapolis Center
11:38PM 46.4500 -101.6194 281° West 432 497 30,000 -60 Level Minneapolis Center
11:39PM 46.4708 -101.7625 282° West 431 496 29,900 -60 Descending Minneapolis Center
11:40PM 46.4997 -101.9642 282° West 428 493 29,900  Level Minneapolis Center
11:41PM 46.5225 -102.1342 281° West 429 494 29,900  Level Minneapolis Center
11:42PM 46.5433 -102.3058 280° West 430 495 29,900  Level Minneapolis Center
11:43PM 46.5661 -102.4739 281° West 427 491 29,900  Level Minneapolis Center
11:45PM 46.5881 -102.6431 281° West 427 491 29,900  Level Minneapolis Center
11:46PM 46.6081 -102.8147 280° West 430 495 30,000  Climbing Minneapolis Center
11:47PM 46.6286 -102.9861 280° West 430 495 29,900  Descending Minneapolis Center
11:48PM 46.6503 -103.1575 280° West 431 496 30,000  Climbing Minneapolis Center
11:49PM 46.6692 -103.3292 279° West 430 495 29,900  Descending Salt Lake Center
11:50PM 46.6908 -103.5000 281° West 430 495 30,000  Climbing Salt Lake Center
11:51PM 46.7108 -103.6733 280° West 431 496 29,900 -60 Descending Salt Lake Center
11:52PM 46.7342 -103.8817 279° West 432 497 29,900  Level Salt Lake Center
11:53PM 46.7536 -104.0561 279° West 434 499 29,900  Level Salt Lake Center
11:54PM 46.7719 -104.2242 279° West 427 491 29,900  Level Salt Lake Center
11:55PM 46.7897 -104.3967 279° West 427 491 29,900  Level Salt Lake Center
11:56PM 46.8081 -104.5683 279° West 429 494 30,000  Climbing Salt Lake Center
11:57PM 46.8250 -104.7411 278° West 430 495 29,900 -60 Descending Salt Lake Center
11:58PM 46.8436 -104.9153 279° West 432 497 29,900  Level Salt Lake Center
11:59PM 46.8625 -105.0892 279° West 433 498 29,900  Level Salt Lake Center
12:00AM 46.8806 -105.2633 279° West 433 498 30,000  Climbing Salt Lake Center
12:01AM 46.8986 -105.4389 279° West 436 502 29,900 -60 Descending Salt Lake Center
12:02AM 46.9150 -105.6125 278° West 434 499 29,900  Level Salt Lake Center
12:03AM 46.9333 -105.7892 279° West 437 503 29,900  Level Salt Lake Center
12:04AM 46.9533 -105.9983 278° West 434 499 29,900  Level Salt Lake Center
12:05AM 46.9714 -106.1744 279° West 436 502 29,900  Level Salt Lake Center
12:06AM 46.9894 -106.3533 278° West 434 499 30,000  Climbing Salt Lake Center
12:07AM 47.0047 -106.5194 278° West 433 498 30,000  Level Salt Lake Center
12:08AM 47.0214 -106.7114 277° West 427 491 30,000  Level Salt Lake Center
12:09AM 47.0361 -106.8783 277° West 430 495 30,000  Level Salt Lake Center
12:10AM 47.0506 -107.0447 277° West 431 496 30,000  Level Salt Lake Center
12:11AM 47.0664 -107.2386 277° West 429 494 30,000  Level Salt Lake Center
12:12AM 47.0806 -107.4075 277° West 433 498 30,000  Level Salt Lake Center
12:13AM 47.0967 -107.6022 277° West 432 497 30,000  Level Salt Lake Center
12:14AM 47.1100 -107.7697 277° West 433 498 30,000  Level Salt Lake Center
12:15AM 47.1239 -107.9378 277° West 432 497 30,000  Level Salt Lake Center
12:16AM 47.1372 -108.1347 276° West 435 501 30,000  Level Salt Lake Center
12:17AM 47.1511 -108.3031 277° West 435 501 30,000  Level Salt Lake Center
12:18AM 47.1625 -108.4736 276° West 438 504 30,000  Level Salt Lake Center
12:19AM 47.1761 -108.6683 276° West 432 497 30,000  Level Salt Lake Center
12:20AM 47.1883 -108.8350 276° West 430 495 30,000  Level Salt Lake Center
12:21AM 47.2008 -109.0328 275° West 435 501 30,000 -60 Level Salt Lake Center
12:22AM 47.2125 -109.1783 277° West 430 495 29,900 -60 Descending Salt Lake Center
12:23AM 47.2244 -109.3550 276° West 433 498 29,900  Level Salt Lake Center
12:24AM 47.2375 -109.5678 275° West 435 501 29,900  Level Salt Lake Center
12:25AM 47.2486 -109.7447 275° West 437 503 29,900  Level Salt Lake Center
12:26AM 47.2592 -109.9239 275° West 438 504 29,900  Level Salt Lake Center
12:27AM 47.2683 -110.1028 274° West 439 505 29,900  Level Salt Lake Center
12:28AM 47.2783 -110.2828 275° West 440 506 30,000  Climbing Salt Lake Center
12:29AM 47.2892 -110.4614 275° West 439 505 29,900  Descending Salt Lake Center
12:30AM 47.2983 -110.6406 274° West 439 505 30,000  Climbing Salt Lake Center
12:31AM 47.3081 -110.8214 275° West 440 506 29,900  Descending Salt Lake Center
12:32AM 47.3167 -111.0019 274° West 440 506 30,000  Climbing Salt Lake Center
12:33AM 47.3256 -111.1844 274° West 443 510 29,900  Descending Salt Lake Center
12:34AM 47.3342 -111.3672 274° West 443 510 30,000  Climbing Salt Lake Center
12:36AM 47.3425 -111.5481 274° West 440 506 29,900 -60 Descending Salt Lake Center
12:37AM 47.3506 -111.7289 274° West 439 505 29,900  Level Salt Lake Center
12:38AM 47.3581 -111.9100 274° West 440 506 30,000  Climbing Salt Lake Center
12:39AM 47.3656 -112.0892 274° West 439 505 29,900  Descending Salt Lake Center
12:40AM 47.3739 -112.3056 273° West 440 506 30,000  Climbing Salt Lake Center
12:41AM 47.3806 -112.4872 273° West 443 510 30,000 -60 Level Salt Lake Center
12:42AM 47.3875 -112.6669 273° West 440 506 29,900 -60 Descending Salt Lake Center
12:43AM 47.3944 -112.8464 273° West 440 506 29,900  Level Salt Lake Center
12:44AM 47.4003 -113.0267 273° West 439 505 29,900  Level Salt Lake Center
12:45AM 47.4058 -113.2069 273° West 440 506 30,000  Climbing Salt Lake Center
12:46AM 47.4111 -113.3897 273° West 444 511 29,900  Descending Salt Lake Center
12:47AM 47.4169 -113.5711 273° West 443 510 30,000  Climbing Salt Lake Center
12:48AM 47.4219 -113.7553 272° West 447 514 29,900 -60 Descending Salt Lake Center
12:49AM 47.4267 -113.9403 272° West 449 517 29,900  Level Salt Lake Center
12:50AM 47.4317 -114.1222 272° West 444 511 30,000  Climbing Salt Lake Center
12:51AM 47.4419 -114.3075 275° West 449 517 29,900  Descending Salt Lake Center
12:52AM 47.4544 -114.4922 276° West 451 519 30,000  Climbing Salt Lake Center
12:53AM 47.4653 -114.6769 275° West 450 518 30,000 -60 Level Salt Lake Center
12:54AM 47.4806 -114.8986 276° West 451 519 29,900 -60 Descending Seattle Center
12:55AM 47.4925 -115.0814 276° West 449 517 29,900  Level Seattle Center
12:56AM 47.5025 -115.2617 275° West 443 510 30,000  Climbing Seattle Center
12:57AM 47.5117 -115.4425 274° West 441 507 30,000 -480 Level Seattle Center
12:58AM 47.5217 -115.6272 275° West 448 516 29,100 -1,860 Descending Seattle Center
12:59AM 47.5303 -115.8078 274° West 449 517 26,300 -3,120 Descending Seattle Center
01:00AM 47.5403 -115.9892 275° West 446 513 22,800 -3,360 Descending Seattle Center
01:01AM 47.5494 -116.1683 274° West 440 506 19,500 -3,480 Descending Seattle Center
01:02AM 47.5611 -116.3739 275° West 418 481 15,900 -3,000 Descending Seattle Center
01:03AM 47.5767 -116.5369 278° West 400 460 13,500 -2,280 Descending Seattle Center
01:04AM 47.6125 -116.6842 290° West 384 442 11,300 -1,740 Descending Seattle Center
01:05AM 47.6447 -116.8228 289° West 359 413 10,100 -840 Descending Seattle Center
01:06AM 47.6750 -116.9444 290° West 303 349 9,700 -840 Descending Seattle Center
01:07AM 47.7003 -117.0581 288° West 293 337 8,500 -1,380 Descending Seattle Center
01:08AM 47.7250 -117.1644 289° West 280 322 7,000 -1,740 Descending Seattle Center
01:09AM 47.7400 -117.2786 281° West 268 308 5,000 -1,200 Descending Seattle Center
01:10AM 47.7367 -117.3603 267° West 246 283 4,600 -480 Descending Seattle Center
01:11AM 47.7000 -117.4156 225° Southwest 190 219 4,100 -660 Descending Seattle Center
01:12AM 47.6647 -117.4689 226° Southwest 152 175 3,300 -840 Descending Seattle Center
01:13AM 47.6369 -117.5097 225° Southwest 142 163 2,500 -540 Descending Seattle Center
01:14AM 47.6186 -117.5381 226° Southwest 105 121 2,300 -240 Descending Seattle Center